Cabarete, Dominican Republic
Current Conditions -  °F | °C
As of 8:00 PM on Saturday 25 Oct 2014 (Local Time) from MDPP Reporting Station
Broken Clouds Broken Clouds  
Wind Chill: 84°   Ceiling: 30000
Heat Index: 96°   Visibility: 6mi
Dew Point: 79°   Wind: 0mph
Humidity: 84%   Direction: NA
Pressure: 29.8"   Gusts: NA
Location:  19.57°N, 70.02°W
Report Text: MDPP 260000Z 00000KT 9999 SCT018 BKN300 29/26 Q1009
Loading
Personal Weather Stations






























Interactive Weather Map
Tropical Storm Tracking
New forecast layout! Learn more

10-Day Weather Forecast

Advertisements
Track Severe Weather on mobile